Safe, Missouri
Current Conditions -  °F | °C
As of 12:53 PM on Friday 24 Oct 2014 (Local Time) from KVIH Reporting Station
Broken Clouds Broken Clouds  
Wind Chill: 65°   Ceiling: 1900
Heat Index: 65°   Visibility: 10mi
Dew Point: 56°   Wind: 5mph
Humidity: 73%   Direction: NA
Pressure: 30.1"   Gusts: NA
Location:  37.9936°N, 91.5964°W
Report Text: KVIH 241753Z AUTO VRB04KT 10SM BKN019 BKN049 18/13 A3010 RMK AO2 SLP189 T01830133 10183 20083 58007
Loading
Personal Weather Stations






























Interactive Weather Map
Tropical Storm Tracking
New forecast layout! Learn more

10-Day Weather Forecast

Advertisements
Track Severe Weather on mobile